East Montpelier, Vermont
Current Conditions -  °F | °C
As of 4:51 PM on Tuesday 25 Nov 2014 (Local Time) from KMPV Reporting Station
Clear Clear  
Wind Chill: 38°   Ceiling: Unl
Heat Index: 41°   Visibility: 10mi
Dew Point: 22°   Wind: 5mph
Humidity: 47%   Direction: 270°W
Pressure: 29.95"   Gusts: NA
Location:  44.27°N, 72.49°W
Report Text: KMPV 252151Z AUTO 27004KT 10SM CLR 05/M06 A2995 RMK AO2 SLP148 T00501056
Loading
Personal Weather Stations






























Interactive Weather Map New forecast layout! Learn more

10-Day Weather Forecast

Advertisements
Track Severe Weather on mobile